sensor_id;sensor_type;location;lat;lon;timestamp;P1;durP1;ratioP1;P2;durP2;ratioP2
18210;SDS011;9231;48.852;9.882;2023-04-12T00:00:32;5.67;;;3.20;;
18210;SDS011;9231;48.852;9.882;2023-04-12T00:03:00;5.43;;;3.03;;
18210;SDS011;9231;48.852;9.882;2023-04-12T00:05:28;7.53;;;3.37;;
18210;SDS011;9231;48.852;9.882;2023-04-12T00:07:55;4.57;;;2.70;;
18210;SDS011;9231;48.852;9.882;2023-04-12T00:10:24;7.43;;;2.90;;
18210;SDS011;9231;48.852;9.882;2023-04-12T00:12:51;4.73;;;3.03;;
18210;SDS011;9231;48.852;9.882;2023-04-12T00:15:18;6.67;;;2.70;;
18210;SDS011;9231;48.852;9.882;2023-04-12T00:17:44;5.57;;;2.90;;
18210;SDS011;9231;48.852;9.882;2023-04-12T00:20:13;6.30;;;2.90;;
18210;SDS011;9231;48.852;9.882;2023-04-12T00:22:40;5.63;;;3.27;;
18210;SDS011;9231;48.852;9.882;2023-04-12T00:25:07;8.30;;;3.20;;
18210;SDS011;9231;48.852;9.882;2023-04-12T00:27:33;6.47;;;2.90;;
18210;SDS011;9231;48.852;9.882;2023-04-12T00:30:00;4.77;;;3.00;;
18210;SDS011;9231;48.852;9.882;2023-04-12T00:32:27;9.10;;;3.03;;
18210;SDS011;9231;48.852;9.882;2023-04-12T00:34:53;8.93;;;2.37;;
18210;SDS011;9231;48.852;9.882;2023-04-12T00:37:21;10.63;;;3.60;;
18210;SDS011;9231;48.852;9.882;2023-04-12T00:39:47;5.37;;;3.67;;
18210;SDS011;9231;48.852;9.882;2023-04-12T00:42:14;5.57;;;3.27;;
18210;SDS011;9231;48.852;9.882;2023-04-12T00:44:40;5.90;;;2.80;;
18210;SDS011;9231;48.852;9.882;2023-04-12T00:47:07;6.27;;;1.87;;
18210;SDS011;9231;48.852;9.882;2023-04-12T00:49:33;7.07;;;2.30;;
18210;SDS011;9231;48.852;9.882;2023-04-12T00:52:04;4.90;;;1.70;;
18210;SDS011;9231;48.852;9.882;2023-04-12T00:54:34;4.43;;;2.20;;
18210;SDS011;9231;48.852;9.882;2023-04-12T00:57:01;8.27;;;2.40;;
18210;SDS011;9231;48.852;9.882;2023-04-12T00:59:28;7.03;;;1.83;;
18210;SDS011;9231;48.852;9.882;2023-04-12T01:01:54;7.37;;;1.50;;
18210;SDS011;9231;48.852;9.882;2023-04-12T01:04:21;3.97;;;1.57;;
18210;SDS011;9231;48.852;9.882;2023-04-12T01:06:53;3.27;;;1.27;;
18210;SDS011;9231;48.852;9.882;2023-04-12T01:09:30;1.73;;;1.10;;
18210;SDS011;9231;48.852;9.882;2023-04-12T01:12:03;3.60;;;1.53;;
18210;SDS011;9231;48.852;9.882;2023-04-12T01:14:34;4.87;;;1.80;;
18210;SDS011;9231;48.852;9.882;2023-04-12T01:17:05;4.00;;;1.30;;
18210;SDS011;9231;48.852;9.882;2023-04-12T01:19:36;5.63;;;1.50;;
18210;SDS011;9231;48.852;9.882;2023-04-12T01:22:10;4.23;;;1.70;;
18210;SDS011;9231;48.852;9.882;2023-04-12T01:24:42;6.13;;;2.10;;
18210;SDS011;9231;48.852;9.882;2023-04-12T01:27:19;4.77;;;1.60;;
18210;SDS011;9231;48.852;9.882;2023-04-12T01:29:52;5.20;;;2.40;;
18210;SDS011;9231;48.852;9.882;2023-04-12T01:32:21;7.47;;;1.97;;
18210;SDS011;9231;48.852;9.882;2023-04-12T01:34:48;3.63;;;1.63;;
18210;SDS011;9231;48.852;9.882;2023-04-12T01:37:15;6.00;;;2.00;;
18210;SDS011;9231;48.852;9.882;2023-04-12T01:39:43;4.30;;;1.60;;
18210;SDS011;9231;48.852;9.882;2023-04-12T01:42:10;2.87;;;1.63;;
18210;SDS011;9231;48.852;9.882;2023-04-12T01:44:38;5.30;;;1.67;;
18210;SDS011;9231;48.852;9.882;2023-04-12T01:47:04;4.57;;;1.93;;
18210;SDS011;9231;48.852;9.882;2023-04-12T01:49:33;7.13;;;1.50;;
18210;SDS011;9231;48.852;9.882;2023-04-12T01:52:02;5.30;;;1.57;;
18210;SDS011;9231;48.852;9.882;2023-04-12T01:54:33;6.33;;;1.83;;
18210;SDS011;9231;48.852;9.882;2023-04-12T01:57:01;3.73;;;1.53;;
18210;SDS011;9231;48.852;9.882;2023-04-12T01:59:30;4.53;;;2.07;;
18210;SDS011;9231;48.852;9.882;2023-04-12T02:01:58;7.00;;;1.80;;
18210;SDS011;9231;48.852;9.882;2023-04-12T02:04:24;8.37;;;1.60;;
18210;SDS011;9231;48.852;9.882;2023-04-12T02:06:51;3.47;;;1.40;;
18210;SDS011;9231;48.852;9.882;2023-04-12T02:09:18;6.27;;;1.47;;
18210;SDS011;9231;48.852;9.882;2023-04-12T02:11:46;5.83;;;2.17;;
18210;SDS011;9231;48.852;9.882;2023-04-12T02:14:13;5.13;;;2.30;;
18210;SDS011;9231;48.852;9.882;2023-04-12T02:16:40;7.60;;;2.27;;
18210;SDS011;9231;48.852;9.882;2023-04-12T02:19:10;3.30;;;1.80;;
18210;SDS011;9231;48.852;9.882;2023-04-12T02:21:39;3.50;;;1.60;;
18210;SDS011;9231;48.852;9.882;2023-04-12T02:24:07;4.03;;;1.57;;
18210;SDS011;9231;48.852;9.882;2023-04-12T02:26:33;5.10;;;1.90;;
18210;SDS011;9231;48.852;9.882;2023-04-12T02:29:00;4.73;;;1.27;;
18210;SDS011;9231;48.852;9.882;2023-04-12T02:31:26;2.67;;;1.27;;
18210;SDS011;9231;48.852;9.882;2023-04-12T02:33:54;4.83;;;1.60;;
18210;SDS011;9231;48.852;9.882;2023-04-12T02:36:22;3.57;;;1.37;;
18210;SDS011;9231;48.852;9.882;2023-04-12T02:38:48;6.07;;;1.87;;
18210;SDS011;9231;48.852;9.882;2023-04-12T02:41:16;3.07;;;1.30;;
18210;SDS011;9231;48.852;9.882;2023-04-12T02:43:42;5.37;;;1.40;;
18210;SDS011;9231;48.852;9.882;2023-04-12T02:46:08;6.00;;;2.00;;
18210;SDS011;9231;48.852;9.882;2023-04-12T02:48:37;4.93;;;1.53;;
18210;SDS011;9231;48.852;9.882;2023-04-12T02:51:04;7.50;;;1.80;;
18210;SDS011;9231;48.852;9.882;2023-04-12T02:53:31;4.10;;;1.60;;
18210;SDS011;9231;48.852;9.882;2023-04-12T02:55:58;3.80;;;1.30;;
18210;SDS011;9231;48.852;9.882;2023-04-12T02:58:25;3.63;;;1.53;;
18210;SDS011;9231;48.852;9.882;2023-04-12T03:00:52;6.83;;;1.73;;
18210;SDS011;9231;48.852;9.882;2023-04-12T03:03:19;4.50;;;1.60;;
18210;SDS011;9231;48.852;9.882;2023-04-12T03:05:45;6.17;;;1.73;;
18210;SDS011;9231;48.852;9.882;2023-04-12T03:08:12;6.10;;;1.40;;
18210;SDS011;9231;48.852;9.882;2023-04-12T03:10:40;5.67;;;1.77;;
18210;SDS011;9231;48.852;9.882;2023-04-12T03:13:06;4.20;;;1.70;;
18210;SDS011;9231;48.852;9.882;2023-04-12T03:15:33;2.47;;;1.50;;
18210;SDS011;9231;48.852;9.882;2023-04-12T03:17:59;3.00;;;1.60;;
18210;SDS011;9231;48.852;9.882;2023-04-12T03:20:26;3.50;;;1.10;;
18210;SDS011;9231;48.852;9.882;2023-04-12T03:22:52;5.13;;;1.80;;
18210;SDS011;9231;48.852;9.882;2023-04-12T03:25:19;3.10;;;1.33;;
18210;SDS011;9231;48.852;9.882;2023-04-12T03:27:47;4.93;;;1.67;;
18210;SDS011;9231;48.852;9.882;2023-04-12T03:30:14;6.67;;;1.67;;
18210;SDS011;9231;48.852;9.882;2023-04-12T03:32:40;8.20;;;2.03;;
18210;SDS011;9231;48.852;9.882;2023-04-12T03:35:07;3.57;;;1.97;;
18210;SDS011;9231;48.852;9.882;2023-04-12T03:37:34;6.23;;;2.30;;
18210;SDS011;9231;48.852;9.882;2023-04-12T03:40:02;5.87;;;2.23;;
18210;SDS011;9231;48.852;9.882;2023-04-12T03:42:29;5.10;;;2.40;;
18210;SDS011;9231;48.852;9.882;2023-04-12T03:44:57;7.47;;;2.10;;
18210;SDS011;9231;48.852;9.882;2023-04-12T03:47:24;3.40;;;1.83;;
18210;SDS011;9231;48.852;9.882;2023-04-12T03:49:50;3.93;;;1.63;;
18210;SDS011;9231;48.852;9.882;2023-04-12T03:52:19;5.23;;;1.87;;
18210;SDS011;9231;48.852;9.882;2023-04-12T03:54:45;4.50;;;2.07;;
18210;SDS011;9231;48.852;9.882;2023-04-12T03:57:11;3.97;;;2.37;;
18210;SDS011;9231;48.852;9.882;2023-04-12T03:59:38;3.67;;;2.00;;
18210;SDS011;9231;48.852;9.882;2023-04-12T04:02:06;3.13;;;1.90;;
18210;SDS011;9231;48.852;9.882;2023-04-12T04:04:35;5.87;;;2.60;;
18210;SDS011;9231;48.852;9.882;2023-04-12T04:07:02;3.50;;;1.80;;
18210;SDS011;9231;48.852;9.882;2023-04-12T04:09:34;6.30;;;2.23;;
18210;SDS011;9231;48.852;9.882;2023-04-12T04:12:09;4.50;;;1.77;;
18210;SDS011;9231;48.852;9.882;2023-04-12T04:14:41;4.17;;;1.87;;
18210;SDS011;9231;48.852;9.882;2023-04-12T04:17:09;6.90;;;1.90;;
18210;SDS011;9231;48.852;9.882;2023-04-12T04:19:36;6.13;;;1.80;;
18210;SDS011;9231;48.852;9.882;2023-04-12T04:22:02;4.17;;;1.90;;
18210;SDS011;9231;48.852;9.882;2023-04-12T04:24:30;2.77;;;1.53;;
18210;SDS011;9231;48.852;9.882;2023-04-12T04:26:58;6.33;;;1.73;;
18210;SDS011;9231;48.852;9.882;2023-04-12T04:29:24;5.17;;;1.90;;
18210;SDS011;9231;48.852;9.882;2023-04-12T04:31:52;2.93;;;1.50;;
18210;SDS011;9231;48.852;9.882;2023-04-12T04:34:20;2.87;;;2.07;;
18210;SDS011;9231;48.852;9.882;2023-04-12T04:36:47;4.17;;;1.70;;
18210;SDS011;9231;48.852;9.882;2023-04-12T04:39:13;3.87;;;1.83;;
18210;SDS011;9231;48.852;9.882;2023-04-12T04:41:40;5.93;;;2.07;;
18210;SDS011;9231;48.852;9.882;2023-04-12T04:44:06;2.13;;;1.73;;
18210;SDS011;9231;48.852;9.882;2023-04-12T04:46:34;4.23;;;1.70;;
18210;SDS011;9231;48.852;9.882;2023-04-12T04:49:02;6.13;;;2.00;;
18210;SDS011;9231;48.852;9.882;2023-04-12T04:51:29;3.20;;;1.73;;
18210;SDS011;9231;48.852;9.882;2023-04-12T04:53:56;2.70;;;1.70;;
18210;SDS011;9231;48.852;9.882;2023-04-12T04:56:23;6.53;;;1.83;;
18210;SDS011;9231;48.852;9.882;2023-04-12T04:58:49;4.93;;;1.63;;
18210;SDS011;9231;48.852;9.882;2023-04-12T05:01:16;4.17;;;1.70;;
18210;SDS011;9231;48.852;9.882;2023-04-12T05:03:42;4.47;;;1.77;;
18210;SDS011;9231;48.852;9.882;2023-04-12T05:06:09;2.53;;;1.50;;
18210;SDS011;9231;48.852;9.882;2023-04-12T05:08:37;2.80;;;1.80;;
18210;SDS011;9231;48.852;9.882;2023-04-12T05:11:04;2.50;;;1.70;;
18210;SDS011;9231;48.852;9.882;2023-04-12T05:13:30;3.33;;;1.70;;
18210;SDS011;9231;48.852;9.882;2023-04-12T05:15:57;2.23;;;1.87;;
18210;SDS011;9231;48.852;9.882;2023-04-12T05:18:23;3.73;;;2.23;;
18210;SDS011;9231;48.852;9.882;2023-04-12T05:20:50;3.53;;;2.10;;
18210;SDS011;9231;48.852;9.882;2023-04-12T05:23:16;5.63;;;1.97;;
18210;SDS011;9231;48.852;9.882;2023-04-12T05:25:45;4.57;;;1.80;;
18210;SDS011;9231;48.852;9.882;2023-04-12T05:28:12;2.33;;;1.53;;
18210;SDS011;9231;48.852;9.882;2023-04-12T05:30:39;3.23;;;1.70;;
18210;SDS011;9231;48.852;9.882;2023-04-12T05:33:06;2.53;;;1.37;;
18210;SDS011;9231;48.852;9.882;2023-04-12T05:35:32;1.90;;;1.40;;
18210;SDS011;9231;48.852;9.882;2023-04-12T05:37:58;3.90;;;2.00;;
18210;SDS011;9231;48.852;9.882;2023-04-12T05:40:25;2.60;;;1.73;;
18210;SDS011;9231;48.852;9.882;2023-04-12T05:42:53;2.33;;;1.80;;
18210;SDS011;9231;48.852;9.882;2023-04-12T05:45:19;3.97;;;1.83;;
18210;SDS011;9231;48.852;9.882;2023-04-12T05:47:45;4.23;;;1.77;;
18210;SDS011;9231;48.852;9.882;2023-04-12T05:50:14;5.33;;;2.10;;
18210;SDS011;9231;48.852;9.882;2023-04-12T05:52:41;2.60;;;1.60;;
18210;SDS011;9231;48.852;9.882;2023-04-12T05:55:07;3.87;;;1.67;;
18210;SDS011;9231;48.852;9.882;2023-04-12T05:57:34;3.37;;;1.67;;
18210;SDS011;9231;48.852;9.882;2023-04-12T06:00:02;2.47;;;1.73;;
18210;SDS011;9231;48.852;9.882;2023-04-12T06:02:34;1.73;;;1.40;;
18210;SDS011;9231;48.852;9.882;2023-04-12T06:05:01;2.73;;;1.50;;
18210;SDS011;9231;48.852;9.882;2023-04-12T06:07:27;2.10;;;1.60;;
18210;SDS011;9231;48.852;9.882;2023-04-12T06:09:54;3.30;;;1.87;;
18210;SDS011;9231;48.852;9.882;2023-04-12T06:12:24;3.60;;;2.00;;
18210;SDS011;9231;48.852;9.882;2023-04-12T06:14:57;3.60;;;1.73;;
18210;SDS011;9231;48.852;9.882;2023-04-12T06:17:26;4.07;;;2.30;;
18210;SDS011;9231;48.852;9.882;2023-04-12T06:19:52;3.53;;;2.17;;
18210;SDS011;9231;48.852;9.882;2023-04-12T06:22:19;2.87;;;1.97;;
18210;SDS011;9231;48.852;9.882;2023-04-12T06:24:45;3.50;;;2.20;;
18210;SDS011;9231;48.852;9.882;2023-04-12T06:27:11;2.53;;;2.10;;
18210;SDS011;9231;48.852;9.882;2023-04-12T06:29:38;3.13;;;2.43;;
18210;SDS011;9231;48.852;9.882;2023-04-12T06:32:05;3.33;;;2.47;;
18210;SDS011;9231;48.852;9.882;2023-04-12T06:34:32;3.13;;;2.47;;
18210;SDS011;9231;48.852;9.882;2023-04-12T06:37:01;2.60;;;2.30;;
18210;SDS011;9231;48.852;9.882;2023-04-12T06:39:28;2.93;;;2.63;;
18210;SDS011;9231;48.852;9.882;2023-04-12T06:41:54;3.63;;;2.30;;
18210;SDS011;9231;48.852;9.882;2023-04-12T06:44:21;2.87;;;2.40;;
18210;SDS011;9231;48.852;9.882;2023-04-12T06:46:48;3.13;;;2.43;;
18210;SDS011;9231;48.852;9.882;2023-04-12T06:49:15;4.13;;;2.90;;
18210;SDS011;9231;48.852;9.882;2023-04-12T06:51:43;4.27;;;3.63;;
18210;SDS011;9231;48.852;9.882;2023-04-12T06:54:09;3.10;;;2.77;;
18210;SDS011;9231;48.852;9.882;2023-04-12T06:56:36;2.80;;;2.17;;
18210;SDS011;9231;48.852;9.882;2023-04-12T06:59:03;3.00;;;1.90;;
18210;SDS011;9231;48.852;9.882;2023-04-12T07:01:30;3.10;;;2.10;;
18210;SDS011;9231;48.852;9.882;2023-04-12T07:03:57;2.73;;;1.73;;
18210;SDS011;9231;48.852;9.882;2023-04-12T07:06:23;1.77;;;1.50;;
18210;SDS011;9231;48.852;9.882;2023-04-12T07:08:51;1.57;;;1.40;;
18210;SDS011;9231;48.852;9.882;2023-04-12T07:11:17;3.57;;;1.60;;
18210;SDS011;9231;48.852;9.882;2023-04-12T07:13:46;1.70;;;1.00;;
18210;SDS011;9231;48.852;9.882;2023-04-12T07:16:12;1.50;;;1.10;;
18210;SDS011;9231;48.852;9.882;2023-04-12T07:18:39;1.70;;;1.13;;
18210;SDS011;9231;48.852;9.882;2023-04-12T07:21:05;1.53;;;1.10;;
18210;SDS011;9231;48.852;9.882;2023-04-12T07:23:32;1.77;;;1.37;;
18210;SDS011;9231;48.852;9.882;2023-04-12T07:26:00;1.63;;;1.20;;
18210;SDS011;9231;48.852;9.882;2023-04-12T07:28:27;1.20;;;1.10;;
18210;SDS011;9231;48.852;9.882;2023-04-12T07:30:53;1.57;;;1.37;;
18210;SDS011;9231;48.852;9.882;2023-04-12T07:33:19;1.63;;;1.13;;
18210;SDS011;9231;48.852;9.882;2023-04-12T07:35:46;1.80;;;0.97;;
18210;SDS011;9231;48.852;9.882;2023-04-12T07:38:12;1.90;;;1.10;;
18210;SDS011;9231;48.852;9.882;2023-04-12T07:40:39;1.20;;;1.03;;
18210;SDS011;9231;48.852;9.882;2023-04-12T07:43:07;1.43;;;1.10;;
18210;SDS011;9231;48.852;9.882;2023-04-12T07:45:34;1.63;;;1.20;;
18210;SDS011;9231;48.852;9.882;2023-04-12T07:48:01;1.70;;;1.30;;
18210;SDS011;9231;48.852;9.882;2023-04-12T07:50:27;2.23;;;1.40;;
18210;SDS011;9231;48.852;9.882;2023-04-12T07:59:15;1.03;;;0.73;;
18210;SDS011;9231;48.852;9.882;2023-04-12T08:01:45;2.27;;;1.07;;
18210;SDS011;9231;48.852;9.882;2023-04-12T08:04:12;1.80;;;1.20;;
18210;SDS011;9231;48.852;9.882;2023-04-12T08:06:38;1.60;;;1.20;;
18210;SDS011;9231;48.852;9.882;2023-04-12T08:09:08;2.57;;;1.37;;
18210;SDS011;9231;48.852;9.882;2023-04-12T08:11:34;2.43;;;1.10;;
18210;SDS011;9231;48.852;9.882;2023-04-12T08:14:03;1.17;;;0.90;;
18210;SDS011;9231;48.852;9.882;2023-04-12T08:16:31;3.00;;;1.23;;
18210;SDS011;9231;48.852;9.882;2023-04-12T08:18:58;2.27;;;1.30;;
18210;SDS011;9231;48.852;9.882;2023-04-12T08:21:25;2.03;;;1.40;;
18210;SDS011;9231;48.852;9.882;2023-04-12T08:23:55;1.50;;;1.30;;
18210;SDS011;9231;48.852;9.882;2023-04-12T08:26:26;2.93;;;1.20;;
18210;SDS011;9231;48.852;9.882;2023-04-12T10:45:49;5.37;;;3.07;;
18210;SDS011;9231;48.852;9.882;2023-04-12T10:48:27;3.30;;;3.00;;
18210;SDS011;9231;48.852;9.882;2023-04-12T10:53:37;5.37;;;3.23;;
18210;SDS011;9231;48.852;9.882;2023-04-12T10:56:11;3.57;;;2.63;;
18210;SDS011;9231;48.852;9.882;2023-04-12T10:58:58;3.03;;;2.53;;
18210;SDS011;9231;48.852;9.882;2023-04-12T11:01:27;4.50;;;2.97;;
18210;SDS011;9231;48.852;9.882;2023-04-12T11:04:09;4.83;;;2.77;;
18210;SDS011;9231;48.852;9.882;2023-04-12T11:06:40;4.50;;;2.90;;
18210;SDS011;9231;48.852;9.882;2023-04-12T11:09:13;4.77;;;3.10;;
18210;SDS011;9231;48.852;9.882;2023-04-12T11:11:41;4.47;;;3.00;;
18210;SDS011;9231;48.852;9.882;2023-04-12T11:14:09;5.77;;;2.63;;
18210;SDS011;9231;48.852;9.882;2023-04-12T11:19:21;4.97;;;2.90;;
18210;SDS011;9231;48.852;9.882;2023-04-12T11:21:51;4.10;;;2.97;;
18210;SDS011;9231;48.852;9.882;2023-04-12T11:24:19;4.90;;;2.80;;
18210;SDS011;9231;48.852;9.882;2023-04-12T11:26:49;5.10;;;2.67;;
18210;SDS011;9231;48.852;9.882;2023-04-12T11:29:23;4.13;;;3.00;;
18210;SDS011;9231;48.852;9.882;2023-04-12T11:31:58;4.57;;;3.00;;
18210;SDS011;9231;48.852;9.882;2023-04-12T11:34:43;5.37;;;3.70;;
18210;SDS011;9231;48.852;9.882;2023-04-12T11:37:10;4.53;;;3.17;;
18210;SDS011;9231;48.852;9.882;2023-04-12T11:39:37;5.83;;;3.23;;
18210;SDS011;9231;48.852;9.882;2023-04-12T11:42:04;4.80;;;4.03;;
18210;SDS011;9231;48.852;9.882;2023-04-12T11:44:33;4.53;;;3.60;;
18210;SDS011;9231;48.852;9.882;2023-04-12T11:46:59;6.93;;;3.50;;
18210;SDS011;9231;48.852;9.882;2023-04-12T11:49:35;5.63;;;3.50;;
18210;SDS011;9231;48.852;9.882;2023-04-12T11:52:04;3.53;;;3.10;;
18210;SDS011;9231;48.852;9.882;2023-04-12T11:54:31;7.10;;;3.00;;
18210;SDS011;9231;48.852;9.882;2023-04-12T11:57:02;3.87;;;3.00;;
18210;SDS011;9231;48.852;9.882;2023-04-12T11:59:46;5.70;;;2.50;;
18210;SDS011;9231;48.852;9.882;2023-04-12T12:02:14;2.97;;;2.07;;
18210;SDS011;9231;48.852;9.882;2023-04-12T12:04:42;3.70;;;2.20;;
18210;SDS011;9231;48.852;9.882;2023-04-12T12:07:28;9.67;;;5.97;;
18210;SDS011;9231;48.852;9.882;2023-04-12T12:12:57;13.77;;;7.80;;
18210;SDS011;9231;48.852;9.882;2023-04-12T12:15:29;5.53;;;4.53;;
18210;SDS011;9231;48.852;9.882;2023-04-12T12:17:56;4.97;;;2.47;;
18210;SDS011;9231;48.852;9.882;2023-04-12T12:20:26;5.33;;;1.77;;
18210;SDS011;9231;48.852;9.882;2023-04-12T12:23:03;3.90;;;1.30;;
18210;SDS011;9231;48.852;9.882;2023-04-12T12:25:30;3.67;;;1.50;;
18210;SDS011;9231;48.852;9.882;2023-04-12T12:27:56;1.53;;;1.00;;
18210;SDS011;9231;48.852;9.882;2023-04-12T12:30:23;2.03;;;1.23;;
18210;SDS011;9231;48.852;9.882;2023-04-12T12:32:49;1.43;;;0.80;;
18210;SDS011;9231;48.852;9.882;2023-04-12T12:35:17;1.83;;;0.87;;
18210;SDS011;9231;48.852;9.882;2023-04-12T12:37:47;1.10;;;0.83;;
18210;SDS011;9231;48.852;9.882;2023-04-12T12:40:16;2.63;;;0.87;;
18210;SDS011;9231;48.852;9.882;2023-04-12T12:42:45;1.47;;;0.63;;
18210;SDS011;9231;48.852;9.882;2023-04-12T12:45:13;0.63;;;0.57;;
18210;SDS011;9231;48.852;9.882;2023-04-12T12:47:46;1.70;;;0.80;;
18210;SDS011;9231;48.852;9.882;2023-04-12T12:50:13;0.90;;;0.70;;
18210;SDS011;9231;48.852;9.882;2023-04-12T12:52:44;1.87;;;0.80;;
18210;SDS011;9231;48.852;9.882;2023-04-12T12:55:11;4.07;;;1.70;;
18210;SDS011;9231;48.852;9.882;2023-04-12T12:57:40;1.43;;;0.87;;
18210;SDS011;9231;48.852;9.882;2023-04-12T13:00:08;2.43;;;1.00;;
18210;SDS011;9231;48.852;9.882;2023-04-12T13:02:35;1.80;;;1.30;;
18210;SDS011;9231;48.852;9.882;2023-04-12T13:05:02;1.60;;;0.90;;
18210;SDS011;9231;48.852;9.882;2023-04-12T13:07:28;2.10;;;0.70;;
18210;SDS011;9231;48.852;9.882;2023-04-12T13:09:55;1.87;;;0.83;;
18210;SDS011;9231;48.852;9.882;2023-04-12T13:12:22;2.20;;;0.70;;
18210;SDS011;9231;48.852;9.882;2023-04-12T13:14:51;1.97;;;0.90;;
18210;SDS011;9231;48.852;9.882;2023-04-12T13:17:19;1.37;;;0.70;;
18210;SDS011;9231;48.852;9.882;2023-04-12T13:19:46;1.10;;;0.70;;
18210;SDS011;9231;48.852;9.882;2023-04-12T13:22:12;2.30;;;0.70;;
18210;SDS011;9231;48.852;9.882;2023-04-12T13:24:39;1.03;;;0.60;;
18210;SDS011;9231;48.852;9.882;2023-04-12T13:27:06;0.90;;;0.60;;
18210;SDS011;9231;48.852;9.882;2023-04-12T13:29:33;3.57;;;0.70;;
18210;SDS011;9231;48.852;9.882;2023-04-12T13:32:01;2.60;;;0.70;;
18210;SDS011;9231;48.852;9.882;2023-04-12T13:34:27;2.30;;;0.60;;
18210;SDS011;9231;48.852;9.882;2023-04-12T13:36:54;1.47;;;0.83;;
18210;SDS011;9231;48.852;9.882;2023-04-12T13:39:20;1.83;;;0.70;;
18210;SDS011;9231;48.852;9.882;2023-04-12T13:41:47;1.20;;;0.60;;
18210;SDS011;9231;48.852;9.882;2023-04-12T13:44:13;1.47;;;0.70;;
18210;SDS011;9231;48.852;9.882;2023-04-12T13:46:40;0.97;;;0.70;;
18210;SDS011;9231;48.852;9.882;2023-04-12T13:49:08;1.70;;;0.90;;
18210;SDS011;9231;48.852;9.882;2023-04-12T13:51:34;2.13;;;0.80;;
18210;SDS011;9231;48.852;9.882;2023-04-12T13:54:01;1.70;;;0.80;;
18210;SDS011;9231;48.852;9.882;2023-04-12T13:56:27;1.30;;;0.80;;
18210;SDS011;9231;48.852;9.882;2023-04-12T13:58:54;2.77;;;0.80;;
18210;SDS011;9231;48.852;9.882;2023-04-12T14:01:21;1.23;;;0.73;;
18210;SDS011;9231;48.852;9.882;2023-04-12T14:03:49;2.23;;;0.90;;
18210;SDS011;9231;48.852;9.882;2023-04-12T14:06:17;2.70;;;1.63;;
18210;SDS011;9231;48.852;9.882;2023-04-12T14:08:44;2.40;;;0.80;;
18210;SDS011;9231;48.852;9.882;2023-04-12T14:11:10;1.57;;;0.60;;
18210;SDS011;9231;48.852;9.882;2023-04-12T14:13:36;1.73;;;0.60;;
18210;SDS011;9231;48.852;9.882;2023-04-12T14:16:03;1.40;;;0.70;;
18210;SDS011;9231;48.852;9.882;2023-04-12T14:18:31;1.13;;;1.03;;
18210;SDS011;9231;48.852;9.882;2023-04-12T14:21:00;0.83;;;0.60;;
18210;SDS011;9231;48.852;9.882;2023-04-12T14:23:30;0.93;;;0.60;;
18210;SDS011;9231;48.852;9.882;2023-04-12T14:25:57;0.60;;;0.50;;
18210;SDS011;9231;48.852;9.882;2023-04-12T14:28:26;1.43;;;0.53;;
18210;SDS011;9231;48.852;9.882;2023-04-12T14:30:55;0.60;;;0.60;;
18210;SDS011;9231;48.852;9.882;2023-04-12T14:33:22;0.70;;;0.50;;
18210;SDS011;9231;48.852;9.882;2023-04-12T14:35:50;1.53;;;0.70;;
18210;SDS011;9231;48.852;9.882;2023-04-12T14:38:17;0.73;;;0.43;;
18210;SDS011;9231;48.852;9.882;2023-04-12T14:40:45;1.47;;;0.60;;
18210;SDS011;9231;48.852;9.882;2023-04-12T14:43:12;1.53;;;0.63;;
18210;SDS011;9231;48.852;9.882;2023-04-12T14:45:38;1.03;;;0.77;;
18210;SDS011;9231;48.852;9.882;2023-04-12T14:48:05;2.07;;;0.90;;
18210;SDS011;9231;48.852;9.882;2023-04-12T14:50:34;2.37;;;0.90;;
18210;SDS011;9231;48.852;9.882;2023-04-12T14:53:00;1.47;;;0.90;;
18210;SDS011;9231;48.852;9.882;2023-04-12T14:55:27;1.57;;;0.60;;
18210;SDS011;9231;48.852;9.882;2023-04-12T14:57:57;1.30;;;0.80;;
18210;SDS011;9231;48.852;9.882;2023-04-12T15:00:24;1.17;;;0.80;;
18210;SDS011;9231;48.852;9.882;2023-04-12T15:02:55;1.30;;;0.80;;
18210;SDS011;9231;48.852;9.882;2023-04-12T15:05:24;1.70;;;0.70;;
18210;SDS011;9231;48.852;9.882;2023-04-12T15:07:51;1.57;;;1.10;;
18210;SDS011;9231;48.852;9.882;2023-04-12T15:10:18;1.40;;;0.70;;
18210;SDS011;9231;48.852;9.882;2023-04-12T15:12:46;0.93;;;0.83;;
18210;SDS011;9231;48.852;9.882;2023-04-12T15:15:14;1.10;;;1.00;;
18210;SDS011;9231;48.852;9.882;2023-04-12T15:17:43;1.60;;;0.87;;
18210;SDS011;9231;48.852;9.882;2023-04-12T15:20:10;0.93;;;0.67;;
18210;SDS011;9231;48.852;9.882;2023-04-12T15:22:44;0.80;;;0.50;;
18210;SDS011;9231;48.852;9.882;2023-04-12T15:25:10;3.30;;;0.63;;
18210;SDS011;9231;48.852;9.882;2023-04-12T15:27:37;3.23;;;0.50;;
18210;SDS011;9231;48.852;9.882;2023-04-12T15:30:04;1.90;;;0.80;;
18210;SDS011;9231;48.852;9.882;2023-04-12T15:32:43;1.87;;;0.60;;
18210;SDS011;9231;48.852;9.882;2023-04-12T15:35:10;2.67;;;0.90;;
18210;SDS011;9231;48.852;9.882;2023-04-12T15:37:36;0.77;;;0.47;;
18210;SDS011;9231;48.852;9.882;2023-04-12T15:40:05;2.03;;;0.70;;
18210;SDS011;9231;48.852;9.882;2023-04-12T15:42:37;0.60;;;0.40;;
18210;SDS011;9231;48.852;9.882;2023-04-12T16:16:43;3.03;;;0.20;;
18210;SDS011;9231;48.852;9.882;2023-04-12T17:47:12;2.17;;;1.87;;
18210;SDS011;9231;48.852;9.882;2023-04-12T17:49:47;3.87;;;1.77;;
18210;SDS011;9231;48.852;9.882;2023-04-12T17:52:16;0.80;;;0.77;;
18210;SDS011;9231;48.852;9.882;2023-04-12T17:54:48;1.97;;;1.30;;
18210;SDS011;9231;48.852;9.882;2023-04-12T17:57:25;2.53;;;1.30;;
18210;SDS011;9231;48.852;9.882;2023-04-12T18:00:29;3.10;;;1.60;;
18210;SDS011;9231;48.852;9.882;2023-04-12T18:05:48;1.43;;;0.90;;
18210;SDS011;9231;48.852;9.882;2023-04-12T18:08:19;0.90;;;0.80;;
18210;SDS011;9231;48.852;9.882;2023-04-12T18:13:46;1.23;;;0.93;;
18210;SDS011;9231;48.852;9.882;2023-04-12T18:19:40;2.33;;;1.10;;
18210;SDS011;9231;48.852;9.882;2023-04-12T18:40:58;1.43;;;0.80;;
18210;SDS011;9231;48.852;9.882;2023-04-12T18:43:31;2.40;;;1.53;;
18210;SDS011;9231;48.852;9.882;2023-04-12T18:46:00;1.17;;;1.00;;
18210;SDS011;9231;48.852;9.882;2023-04-12T18:48:29;2.00;;;1.00;;
18210;SDS011;9231;48.852;9.882;2023-04-12T18:50:55;1.97;;;1.33;;
18210;SDS011;9231;48.852;9.882;2023-04-12T18:53:25;1.20;;;0.80;;
18210;SDS011;9231;48.852;9.882;2023-04-12T18:55:52;1.80;;;0.90;;
18210;SDS011;9231;48.852;9.882;2023-04-12T18:58:20;1.13;;;1.03;;
18210;SDS011;9231;48.852;9.882;2023-04-12T19:00:46;2.37;;;1.40;;
18210;SDS011;9231;48.852;9.882;2023-04-12T19:03:12;1.57;;;1.23;;
18210;SDS011;9231;48.852;9.882;2023-04-12T19:05:42;1.73;;;1.20;;
18210;SDS011;9231;48.852;9.882;2023-04-12T19:08:09;1.37;;;1.00;;
18210;SDS011;9231;48.852;9.882;2023-04-12T19:10:38;2.27;;;1.30;;
18210;SDS011;9231;48.852;9.882;2023-04-12T19:13:05;1.37;;;1.17;;
18210;SDS011;9231;48.852;9.882;2023-04-12T19:15:38;1.43;;;1.00;;
18210;SDS011;9231;48.852;9.882;2023-04-12T19:18:05;2.30;;;0.90;;
18210;SDS011;9231;48.852;9.882;2023-04-12T19:20:32;1.47;;;1.03;;
18210;SDS011;9231;48.852;9.882;2023-04-12T19:22:58;1.67;;;1.10;;
18210;SDS011;9231;48.852;9.882;2023-04-12T19:25:25;2.03;;;1.00;;
18210;SDS011;9231;48.852;9.882;2023-04-12T19:27:55;1.27;;;1.00;;
18210;SDS011;9231;48.852;9.882;2023-04-12T19:30:22;1.37;;;1.10;;
18210;SDS011;9231;48.852;9.882;2023-04-12T19:32:50;1.07;;;0.87;;
18210;SDS011;9231;48.852;9.882;2023-04-12T19:35:18;0.93;;;0.77;;
18210;SDS011;9231;48.852;9.882;2023-04-12T19:37:45;0.80;;;0.60;;
18210;SDS011;9231;48.852;9.882;2023-04-12T19:40:14;1.30;;;0.80;;
18210;SDS011;9231;48.852;9.882;2023-04-12T19:42:41;1.23;;;0.80;;
18210;SDS011;9231;48.852;9.882;2023-04-12T19:45:08;1.97;;;0.80;;
18210;SDS011;9231;48.852;9.882;2023-04-12T19:47:34;2.17;;;0.97;;
18210;SDS011;9231;48.852;9.882;2023-04-12T19:50:10;1.10;;;0.80;;
18210;SDS011;9231;48.852;9.882;2023-04-12T20:02:18;3.27;;;1.77;;
18210;SDS011;9231;48.852;9.882;2023-04-12T20:04:13;1.63;;;1.00;;
18210;SDS011;9231;48.852;9.882;2023-04-12T20:06:41;2.83;;;1.00;;
18210;SDS011;9231;48.852;9.882;2023-04-12T20:09:08;1.30;;;0.90;;
18210;SDS011;9231;48.852;9.882;2023-04-12T20:11:35;1.13;;;1.00;;
18210;SDS011;9231;48.852;9.882;2023-04-12T20:14:01;1.67;;;1.20;;